Time;durP1;ratioP1;P1;durP2;ratioP2;P2;SDS_P1;SDS_P2;PMS_P1;PMS_P2;Temp;Humidity;BMP_temperature;BMP_pressure;BME280_temperature;BME280_humidity;BME280_pressure;Samples;Min_cycle;Max_cycle;Signal;HPM_P1;HPM_P2
2023/12/25 00:00:31;;;;;;;0.95;0.50;;;;;;;;;;5097464;28;20298;-66
2023/12/25 00:02:59;;;;;;;0.60;0.60;;;;;;;;;;5097898;28;20298;-66
2023/12/25 00:05:28;;;;;;;0.70;0.60;;;;;;;;;;5098095;28;20204;-66
2023/12/25 00:07:55;;;;;;;0.82;0.80;;;;;;;;;;5097404;28;20208;-66
2023/12/25 00:10:22;;;;;;;0.70;0.60;;;;;;;;;;5097817;28;20264;-66
2023/12/25 00:12:50;;;;;;;0.60;0.60;;;;;;;;;;5097800;28;20533;-66
2023/12/25 00:15:17;;;;;;;0.63;0.52;;;;;;;;;;5097156;28;20225;-66
2023/12/25 00:17:45;;;;;;;0.52;0.52;;;;;;;;;;5096760;28;20214;-66
2023/12/25 00:20:13;;;;;;;0.60;0.60;;;;;;;;;;5097443;28;20203;-66
2023/12/25 00:22:42;;;;;;;0.73;0.70;;;;;;;;;;5097364;28;20306;-66
2023/12/25 00:25:09;;;;;;;0.60;0.60;;;;;;;;;;5097485;28;20243;-66
2023/12/25 00:27:37;;;;;;;0.80;0.80;;;;;;;;;;5097068;28;20582;-67
2023/12/25 00:30:04;;;;;;;0.50;0.50;;;;;;;;;;5096993;28;20298;-66
2023/12/25 00:32:32;;;;;;;0.60;0.60;;;;;;;;;;5097425;28;20207;-67
2023/12/25 00:35:00;;;;;;;1.35;0.65;;;;;;;;;;5097213;28;20290;-66
2023/12/25 00:37:27;;;;;;;0.70;0.70;;;;;;;;;;5097243;28;20204;-66
2023/12/25 00:39:56;;;;;;;0.60;0.60;;;;;;;;;;5097414;28;20274;-66
2023/12/25 00:42:23;;;;;;;1.40;0.60;;;;;;;;;;5097003;28;20658;-66
2023/12/25 00:44:51;;;;;;;0.52;0.50;;;;;;;;;;5097030;28;20203;-66
2023/12/25 00:47:19;;;;;;;0.55;0.55;;;;;;;;;;5097382;28;20204;-66
2023/12/25 00:49:46;;;;;;;0.68;0.60;;;;;;;;;;5096773;28;20649;-66
2023/12/25 00:52:17;;;;;;;0.60;0.50;;;;;;;;;;5096921;28;20226;-66
2023/12/25 00:54:44;;;;;;;0.57;0.55;;;;;;;;;;5096977;28;20242;-66
2023/12/25 00:57:13;;;;;;;0.50;0.50;;;;;;;;;;5097139;28;20573;-66
2023/12/25 00:59:41;;;;;;;0.60;0.60;;;;;;;;;;5096758;28;20240;-66
2023/12/25 01:02:08;;;;;;;0.60;0.60;;;;;;;;;;5097089;28;20211;-66
2023/12/25 01:04:35;;;;;;;0.50;0.50;;;;;;;;;;5096921;28;20216;-66
2023/12/25 01:07:03;;;;;;;1.00;0.52;;;;;;;;;;5097257;28;20208;-66
2023/12/25 01:09:30;;;;;;;0.60;0.50;;;;;;;;;;5097224;28;20246;-66
2023/12/25 01:11:58;;;;;;;0.70;0.70;;;;;;;;;;5096746;28;20203;-66
2023/12/25 01:14:27;;;;;;;0.63;0.52;;;;;;;;;;5097015;28;20204;-66
2023/12/25 01:16:54;;;;;;;0.82;0.60;;;;;;;;;;5097014;28;20254;-67
2023/12/25 01:19:22;;;;;;;0.60;0.60;;;;;;;;;;5097299;28;20332;-66
2023/12/25 01:21:49;;;;;;;0.57;0.57;;;;;;;;;;5096494;28;20204;-66
2023/12/25 01:24:17;;;;;;;0.70;0.52;;;;;;;;;;5096697;28;20265;-66
2023/12/25 01:26:44;;;;;;;1.00;0.60;;;;;;;;;;5096861;28;20226;-66
2023/12/25 01:29:12;;;;;;;1.77;0.60;;;;;;;;;;5100087;28;20247;-66
2023/12/25 01:31:43;;;;;;;0.70;0.50;;;;;;;;;;5100603;28;20298;-67
2023/12/25 01:34:10;;;;;;;0.73;0.70;;;;;;;;;;5100875;28;20204;-66
2023/12/25 01:36:38;;;;;;;0.50;0.45;;;;;;;;;;5100639;28;20231;-66
2023/12/25 01:39:06;;;;;;;1.10;0.60;;;;;;;;;;5100391;28;20621;-66
2023/12/25 01:41:33;;;;;;;0.82;0.60;;;;;;;;;;5100974;28;20203;-66
2023/12/25 01:44:01;;;;;;;1.05;0.52;;;;;;;;;;5100146;28;20203;-66
2023/12/25 01:46:28;;;;;;;0.80;0.68;;;;;;;;;;5100374;28;20216;-66
2023/12/25 01:48:56;;;;;;;0.50;0.50;;;;;;;;;;5100720;28;20200;-66
2023/12/25 01:51:24;;;;;;;0.85;0.60;;;;;;;;;;5100386;28;20203;-66
2023/12/25 01:53:52;;;;;;;0.50;0.50;;;;;;;;;;5100642;28;20365;-66
2023/12/25 01:56:20;;;;;;;0.63;0.40;;;;;;;;;;5100462;28;20239;-66
2023/12/25 01:58:47;;;;;;;1.25;0.57;;;;;;;;;;5099656;28;20316;-66
2023/12/25 02:01:14;;;;;;;1.02;0.50;;;;;;;;;;5100177;28;20257;-66
2023/12/25 02:03:42;;;;;;;0.52;0.52;;;;;;;;;;5099844;28;20300;-67
2023/12/25 02:06:11;;;;;;;0.75;0.47;;;;;;;;;;5100391;28;20291;-66
2023/12/25 02:08:38;;;;;;;0.60;0.60;;;;;;;;;;5100076;28;20220;-66
2023/12/25 02:11:06;;;;;;;0.47;0.47;;;;;;;;;;5099802;28;20199;-66
2023/12/25 02:13:33;;;;;;;0.73;0.57;;;;;;;;;;5099600;28;20208;-67
2023/12/25 02:16:01;;;;;;;0.63;0.50;;;;;;;;;;5099765;28;20207;-66
2023/12/25 02:18:29;;;;;;;0.63;0.63;;;;;;;;;;5099524;28;20707;-67
2023/12/25 02:20:57;;;;;;;0.80;0.50;;;;;;;;;;5099941;28;20286;-66
2023/12/25 02:23:27;;;;;;;1.88;0.57;;;;;;;;;;5099774;28;20203;-66
2023/12/25 02:25:57;;;;;;;0.50;0.50;;;;;;;;;;5099310;28;20196;-66
2023/12/25 02:28:25;;;;;;;0.73;0.60;;;;;;;;;;5099848;28;20298;-66
2023/12/25 02:30:52;;;;;;;0.70;0.60;;;;;;;;;;5099566;28;20204;-66
2023/12/25 02:33:21;;;;;;;1.10;0.60;;;;;;;;;;5099259;28;20211;-66
2023/12/25 02:35:49;;;;;;;0.77;0.55;;;;;;;;;;5099173;28;20589;-66
2023/12/25 02:38:16;;;;;;;0.40;0.40;;;;;;;;;;5099314;28;20302;-66
2023/12/25 02:40:44;;;;;;;0.50;0.50;;;;;;;;;;5098759;28;20467;-66
2023/12/25 02:43:13;;;;;;;0.52;0.50;;;;;;;;;;5099472;28;20207;-66
2023/12/25 02:45:40;;;;;;;0.50;0.50;;;;;;;;;;5099192;28;20265;-66
2023/12/25 02:48:08;;;;;;;0.70;0.60;;;;;;;;;;5099621;28;20203;-66
2023/12/25 02:50:35;;;;;;;0.57;0.50;;;;;;;;;;5099085;28;20214;-66
2023/12/25 02:53:03;;;;;;;0.50;0.50;;;;;;;;;;5099262;28;20204;-66
2023/12/25 02:55:31;;;;;;;0.55;0.50;;;;;;;;;;5098848;28;20214;-66
2023/12/25 02:57:58;;;;;;;0.60;0.60;;;;;;;;;;5098732;28;20501;-66
2023/12/25 03:00:27;;;;;;;0.82;0.52;;;;;;;;;;5099306;28;20227;-66
2023/12/25 03:02:55;;;;;;;0.73;0.40;;;;;;;;;;5098933;28;20265;-66
2023/12/25 03:05:22;;;;;;;0.40;0.40;;;;;;;;;;5098614;28;20204;-66
2023/12/25 03:07:50;;;;;;;0.50;0.50;;;;;;;;;;5098372;28;20302;-66
2023/12/25 03:10:17;;;;;;;0.80;0.60;;;;;;;;;;5098887;28;20269;-66
2023/12/25 03:12:44;;;;;;;0.47;0.40;;;;;;;;;;5099024;28;20214;-66
2023/12/25 03:15:12;;;;;;;0.45;0.35;;;;;;;;;;5098721;28;20589;-66
2023/12/25 03:17:41;;;;;;;0.50;0.40;;;;;;;;;;5098404;28;20203;-66
2023/12/25 03:20:09;;;;;;;0.50;0.50;;;;;;;;;;5098670;28;20228;-66
2023/12/25 03:22:36;;;;;;;0.88;0.45;;;;;;;;;;5098751;28;20210;-66
2023/12/25 03:25:04;;;;;;;0.60;0.60;;;;;;;;;;5098837;28;20204;-66
2023/12/25 03:27:31;;;;;;;0.47;0.47;;;;;;;;;;5098494;28;20207;-66
2023/12/25 03:29:59;;;;;;;0.73;0.50;;;;;;;;;;5098270;28;20545;-66
2023/12/25 03:32:27;;;;;;;0.77;0.50;;;;;;;;;;5098541;28;20211;-66
2023/12/25 03:34:55;;;;;;;0.55;0.55;;;;;;;;;;5098202;28;20566;-66
2023/12/25 03:37:23;;;;;;;0.68;0.50;;;;;;;;;;5098311;28;20290;-66
2023/12/25 03:39:51;;;;;;;0.52;0.40;;;;;;;;;;5098203;28;20223;-66
2023/12/25 03:42:18;;;;;;;0.70;0.47;;;;;;;;;;5098256;28;20309;-66
2023/12/25 03:44:47;;;;;;;0.55;0.50;;;;;;;;;;5098035;28;20218;-66
2023/12/25 03:47:14;;;;;;;0.82;0.50;;;;;;;;;;5097976;28;20227;-66
2023/12/25 03:49:41;;;;;;;0.43;0.43;;;;;;;;;;5098059;28;20192;-66
2023/12/25 03:52:10;;;;;;;0.40;0.40;;;;;;;;;;5097851;28;20212;-66
2023/12/25 03:54:38;;;;;;;0.65;0.50;;;;;;;;;;5098075;28;20205;-66
2023/12/25 03:57:06;;;;;;;0.50;0.50;;;;;;;;;;5097939;28;20226;-66
2023/12/25 03:59:33;;;;;;;0.52;0.50;;;;;;;;;;5097445;28;20235;-66
2023/12/25 04:02:01;;;;;;;0.40;0.40;;;;;;;;;;5097665;28;20314;-66
2023/12/25 04:04:28;;;;;;;0.40;0.32;;;;;;;;;;5097210;28;20218;-66
2023/12/25 04:06:56;;;;;;;0.47;0.43;;;;;;;;;;5097780;28;20207;-66
2023/12/25 04:09:24;;;;;;;0.55;0.50;;;;;;;;;;5098101;28;20199;-66
2023/12/25 04:11:52;;;;;;;0.40;0.40;;;;;;;;;;5097773;28;20211;-66
2023/12/25 04:14:20;;;;;;;0.50;0.50;;;;;;;;;;5097950;28;20547;-66
2023/12/25 04:16:47;;;;;;;0.50;0.40;;;;;;;;;;5097591;28;20207;-66
2023/12/25 04:19:14;;;;;;;0.43;0.38;;;;;;;;;;5097619;28;20227;-66
2023/12/25 04:21:42;;;;;;;0.50;0.50;;;;;;;;;;5097456;28;20199;-66
2023/12/25 04:24:09;;;;;;;0.40;0.40;;;;;;;;;;5097287;28;20253;-66
2023/12/25 04:26:38;;;;;;;0.40;0.40;;;;;;;;;;5097530;28;20195;-66
2023/12/25 04:29:06;;;;;;;0.47;0.47;;;;;;;;;;5097337;28;20210;-66
2023/12/25 04:31:33;;;;;;;0.40;0.40;;;;;;;;;;5097594;28;20209;-66
2023/12/25 04:34:00;;;;;;;0.73;0.47;;;;;;;;;;5097570;28;20203;-66
2023/12/25 04:36:28;;;;;;;1.00;0.55;;;;;;;;;;5097215;28;20212;-66
2023/12/25 04:38:58;;;;;;;0.45;0.45;;;;;;;;;;5097481;28;20285;-66
2023/12/25 04:41:26;;;;;;;0.43;0.43;;;;;;;;;;5097802;28;20211;-66
2023/12/25 04:43:55;;;;;;;0.35;0.35;;;;;;;;;;5097511;28;20204;-66
2023/12/25 04:46:22;;;;;;;0.50;0.45;;;;;;;;;;5097775;28;20204;-66
2023/12/25 04:48:49;;;;;;;0.30;0.30;;;;;;;;;;5097820;28;20231;-66
2023/12/25 04:51:17;;;;;;;0.40;0.40;;;;;;;;;;5097501;28;20200;-66
2023/12/25 04:53:44;;;;;;;1.08;0.50;;;;;;;;;;5097416;28;20203;-66
2023/12/25 04:56:12;;;;;;;0.50;0.50;;;;;;;;;;5097276;28;20536;-67
2023/12/25 04:58:40;;;;;;;0.40;0.40;;;;;;;;;;5097419;28;20300;-66
2023/12/25 05:01:08;;;;;;;0.45;0.45;;;;;;;;;;5097362;28;20235;-66
2023/12/25 05:03:36;;;;;;;0.40;0.30;;;;;;;;;;5100087;28;20580;-66
2023/12/25 05:06:04;;;;;;;0.35;0.35;;;;;;;;;;5101317;28;20235;-66
2023/12/25 05:08:32;;;;;;;0.45;0.40;;;;;;;;;;5101247;28;20211;-66
2023/12/25 05:10:59;;;;;;;0.50;0.40;;;;;;;;;;5100919;28;20210;-66
2023/12/25 05:13:26;;;;;;;0.45;0.45;;;;;;;;;;5100826;28;20207;-66
2023/12/25 05:15:53;;;;;;;0.50;0.50;;;;;;;;;;5100965;28;20211;-66
2023/12/25 05:18:22;;;;;;;0.30;0.30;;;;;;;;;;5100837;28;20268;-66
2023/12/25 05:20:50;;;;;;;0.30;0.30;;;;;;;;;;5101129;28;20608;-66
2023/12/25 05:23:17;;;;;;;0.50;0.40;;;;;;;;;;5100801;28;20211;-66
2023/12/25 05:25:44;;;;;;;0.45;0.45;;;;;;;;;;5100757;28;20581;-66
2023/12/25 05:28:12;;;;;;;0.47;0.38;;;;;;;;;;5100825;28;20570;-66
2023/12/25 05:30:39;;;;;;;0.52;0.40;;;;;;;;;;5101134;28;20214;-66
2023/12/25 05:33:06;;;;;;;0.38;0.32;;;;;;;;;;5100919;28;20269;-66
2023/12/25 05:35:35;;;;;;;0.30;0.30;;;;;;;;;;5100596;28;20211;-66
2023/12/25 05:38:03;;;;;;;0.30;0.30;;;;;;;;;;5100749;28;20211;-66
2023/12/25 05:40:30;;;;;;;0.38;0.30;;;;;;;;;;5100526;28;20232;-66
2023/12/25 05:42:57;;;;;;;0.40;0.40;;;;;;;;;;5100657;28;20211;-66
2023/12/25 05:45:25;;;;;;;0.50;0.38;;;;;;;;;;5100539;28;20211;-66
2023/12/25 05:47:52;;;;;;;0.50;0.50;;;;;;;;;;5100321;28;20203;-66
2023/12/25 05:50:19;;;;;;;0.30;0.30;;;;;;;;;;5100063;28;20215;-67
2023/12/25 05:52:48;;;;;;;0.30;0.30;;;;;;;;;;5100806;28;20211;-66
2023/12/25 05:55:15;;;;;;;0.40;0.40;;;;;;;;;;5100291;28;20538;-66
2023/12/25 05:57:43;;;;;;;0.30;0.20;;;;;;;;;;5100159;28;20214;-66
2023/12/25 06:00:10;;;;;;;0.40;0.30;;;;;;;;;;5099813;28;20269;-66
2023/12/25 06:02:38;;;;;;;0.30;0.30;;;;;;;;;;5100204;28;20260;-66
2023/12/25 06:05:05;;;;;;;0.40;0.40;;;;;;;;;;5099953;28;20211;-66
2023/12/25 06:07:33;;;;;;;0.30;0.30;;;;;;;;;;5100126;28;20520;-66
2023/12/25 06:10:01;;;;;;;1.45;0.40;;;;;;;;;;5099918;28;20544;-66
2023/12/25 06:12:28;;;;;;;0.60;0.40;;;;;;;;;;5099971;28;20203;-66
2023/12/25 06:14:56;;;;;;;0.60;0.40;;;;;;;;;;5098511;28;20203;-66
2023/12/25 06:17:23;;;;;;;0.30;0.30;;;;;;;;;;5099902;28;20200;-66
2023/12/25 06:19:51;;;;;;;0.43;0.43;;;;;;;;;;5099591;28;20234;-66
2023/12/25 06:22:18;;;;;;;0.40;0.30;;;;;;;;;;5099822;28;20288;-66
2023/12/25 06:24:45;;;;;;;0.47;0.30;;;;;;;;;;5099693;28;20215;-66
2023/12/25 06:27:14;;;;;;;0.40;0.38;;;;;;;;;;5099712;28;20619;-66
2023/12/25 06:29:42;;;;;;;0.43;0.40;;;;;;;;;;5099582;28;20204;-66
2023/12/25 06:32:10;;;;;;;0.50;0.40;;;;;;;;;;5099473;28;20204;-66
2023/12/25 06:34:37;;;;;;;0.30;0.30;;;;;;;;;;5099248;28;20325;-66
2023/12/25 06:37:04;;;;;;;0.80;0.40;;;;;;;;;;5099287;28;20208;-66
2023/12/25 06:39:32;;;;;;;0.30;0.30;;;;;;;;;;5098880;28;20204;-66
2023/12/25 06:41:59;;;;;;;0.30;0.30;;;;;;;;;;5099057;28;20215;-67
2023/12/25 06:44:28;;;;;;;0.40;0.40;;;;;;;;;;5099071;28;20502;-66
2023/12/25 06:46:55;;;;;;;0.60;0.40;;;;;;;;;;5099595;28;20211;-66
2023/12/25 06:49:22;;;;;;;0.30;0.30;;;;;;;;;;5099223;28;20203;-66
2023/12/25 06:51:50;;;;;;;0.30;0.30;;;;;;;;;;5098901;28;20207;-66
2023/12/25 06:54:17;;;;;;;0.30;0.30;;;;;;;;;;5099225;28;20294;-66
2023/12/25 06:56:45;;;;;;;0.55;0.40;;;;;;;;;;5099047;28;20295;-66
2023/12/25 06:59:12;;;;;;;0.22;0.22;;;;;;;;;;5098886;28;20633;-66
2023/12/25 07:01:41;;;;;;;0.50;0.30;;;;;;;;;;5098601;28;20228;-66
2023/12/25 07:04:10;;;;;;;0.40;0.28;;;;;;;;;;5098916;28;20211;-66
2023/12/25 07:06:38;;;;;;;0.30;0.30;;;;;;;;;;5099137;28;20533;-66
2023/12/25 07:09:05;;;;;;;0.70;0.35;;;;;;;;;;5098937;28;20200;-66
2023/12/25 07:11:33;;;;;;;0.25;0.20;;;;;;;;;;5098780;28;20211;-66
2023/12/25 07:14:00;;;;;;;0.30;0.30;;;;;;;;;;5098245;28;20491;-66
2023/12/25 07:16:28;;;;;;;0.30;0.30;;;;;;;;;;5098513;28;20574;-66
2023/12/25 07:18:57;;;;;;;0.38;0.30;;;;;;;;;;5098599;28;20203;-66
2023/12/25 07:21:24;;;;;;;0.50;0.50;;;;;;;;;;5098077;28;20490;-66
2023/12/25 07:23:52;;;;;;;0.30;0.30;;;;;;;;;;5098685;28;20203;-66
2023/12/25 07:26:20;;;;;;;0.40;0.28;;;;;;;;;;5098058;28;20231;-66
2023/12/25 07:28:48;;;;;;;0.30;0.30;;;;;;;;;;5098687;28;20204;-66
2023/12/25 07:31:16;;;;;;;0.30;0.20;;;;;;;;;;5098250;28;20199;-66
2023/12/25 07:33:43;;;;;;;0.30;0.30;;;;;;;;;;5098253;28;20211;-66
2023/12/25 07:36:12;;;;;;;0.20;0.20;;;;;;;;;;5098219;28;20492;-66
2023/12/25 07:38:41;;;;;;;0.30;0.30;;;;;;;;;;5098352;28;20268;-66
2023/12/25 07:41:09;;;;;;;0.20;0.20;;;;;;;;;;5098074;28;20228;-66
2023/12/25 07:43:37;;;;;;;0.40;0.40;;;;;;;;;;5097679;28;20204;-66
2023/12/25 07:46:06;;;;;;;0.30;0.30;;;;;;;;;;5098349;28;20204;-66
2023/12/25 07:48:33;;;;;;;0.40;0.40;;;;;;;;;;5097687;28;20214;-66
2023/12/25 07:51:00;;;;;;;0.30;0.30;;;;;;;;;;5097872;28;20294;-66
2023/12/25 07:53:29;;;;;;;0.40;0.20;;;;;;;;;;5097863;28;20208;-66
2023/12/25 07:55:56;;;;;;;0.50;0.30;;;;;;;;;;5097869;28;20289;-66
2023/12/25 07:58:23;;;;;;;0.30;0.30;;;;;;;;;;5098000;28;20635;-66
2023/12/25 08:00:51;;;;;;;0.35;0.30;;;;;;;;;;5098104;28;20549;-66
2023/12/25 08:03:17;;;;;;;0.30;0.30;;;;;;;;;;5097984;28;20216;-66
2023/12/25 08:05:45;;;;;;;0.50;0.40;;;;;;;;;;5098294;28;20199;-66
2023/12/25 08:08:12;;;;;;;0.28;0.28;;;;;;;;;;5097109;28;20215;-66
2023/12/25 08:10:40;;;;;;;0.40;0.30;;;;;;;;;;5097614;28;20203;-66
2023/12/25 08:13:08;;;;;;;0.32;0.30;;;;;;;;;;5097356;28;20211;-66
2023/12/25 08:15:36;;;;;;;0.30;0.30;;;;;;;;;;5097887;28;20211;-66
2023/12/25 08:18:04;;;;;;;0.38;0.38;;;;;;;;;;5097790;28;20211;-66
2023/12/25 08:20:31;;;;;;;0.32;0.32;;;;;;;;;;5097405;28;20227;-66
2023/12/25 08:22:58;;;;;;;0.38;0.38;;;;;;;;;;5096876;28;20203;-66
2023/12/25 08:25:26;;;;;;;0.30;0.30;;;;;;;;;;5097083;28;20214;-66
2023/12/25 08:27:55;;;;;;;0.30;0.30;;;;;;;;;;5097481;28;20223;-66
2023/12/25 08:30:23;;;;;;;0.30;0.30;;;;;;;;;;5097179;28;20199;-66
2023/12/25 08:32:50;;;;;;;0.47;0.38;;;;;;;;;;5096784;28;20620;-66
2023/12/25 08:35:18;;;;;;;0.40;0.38;;;;;;;;;;5097350;28;20290;-66
2023/12/25 08:37:45;;;;;;;0.30;0.30;;;;;;;;;;5098708;28;20204;-66
2023/12/25 08:40:12;;;;;;;0.30;0.30;;;;;;;;;;5101975;28;20230;-66
2023/12/25 08:42:39;;;;;;;0.20;0.20;;;;;;;;;;5100601;28;20597;-66
2023/12/25 08:45:09;;;;;;;0.30;0.30;;;;;;;;;;5101799;28;20203;-66
2023/12/25 08:47:37;;;;;;;0.32;0.30;;;;;;;;;;5101398;28;20211;-66
2023/12/25 08:50:04;;;;;;;0.38;0.30;;;;;;;;;;5101418;28;20203;-66
2023/12/25 08:52:31;;;;;;;0.90;0.30;;;;;;;;;;5100745;28;20199;-67
2023/12/25 08:54:59;;;;;;;0.30;0.30;;;;;;;;;;5101044;28;20234;-66
2023/12/25 08:57:26;;;;;;;0.25;0.25;;;;;;;;;;5100690;28;20513;-66
2023/12/25 08:59:53;;;;;;;0.25;0.25;;;;;;;;;;5100131;28;20231;-66
2023/12/25 09:02:22;;;;;;;0.22;0.22;;;;;;;;;;5101000;28;20219;-66
2023/12/25 09:04:50;;;;;;;0.40;0.30;;;;;;;;;;5101301;28;20204;-66
2023/12/25 09:07:17;;;;;;;0.28;0.28;;;;;;;;;;5101017;28;20253;-66
2023/12/25 09:09:44;;;;;;;0.30;0.30;;;;;;;;;;5100871;28;20211;-66
2023/12/25 09:12:12;;;;;;;0.20;0.20;;;;;;;;;;5100727;28;20605;-66
2023/12/25 09:14:39;;;;;;;0.40;0.40;;;;;;;;;;5100598;28;20453;-66
2023/12/25 09:17:08;;;;;;;0.43;0.28;;;;;;;;;;5100676;28;20215;-66
2023/12/25 09:19:36;;;;;;;0.30;0.30;;;;;;;;;;5100582;28;20203;-66
2023/12/25 09:22:04;;;;;;;0.40;0.40;;;;;;;;;;5100329;28;20223;-66
2023/12/25 09:24:31;;;;;;;0.40;0.40;;;;;;;;;;5100664;28;20242;-66
2023/12/25 09:27:00;;;;;;;0.90;0.40;;;;;;;;;;5100588;28;20203;-66
2023/12/25 09:29:28;;;;;;;0.55;0.40;;;;;;;;;;5100455;28;20215;-66
2023/12/25 09:31:55;;;;;;;0.30;0.28;;;;;;;;;;5099715;28;20203;-66
2023/12/25 09:34:23;;;;;;;0.30;0.20;;;;;;;;;;5100543;28;20479;-66
2023/12/25 09:36:55;;;;;;;0.40;0.40;;;;;;;;;;5100364;28;20557;-66
2023/12/25 09:39:22;;;;;;;0.40;0.30;;;;;;;;;;5100650;28;20666;-66
2023/12/25 09:41:50;;;;;;;0.50;0.30;;;;;;;;;;5100283;28;20224;-66
2023/12/25 09:44:17;;;;;;;0.40;0.40;;;;;;;;;;5100147;28;20284;-66
2023/12/25 09:46:45;;;;;;;0.28;0.28;;;;;;;;;;5100360;28;20207;-66
2023/12/25 09:49:12;;;;;;;0.20;0.20;;;;;;;;;;5099512;28;20208;-66
2023/12/25 09:51:39;;;;;;;0.20;0.20;;;;;;;;;;5100053;28;20204;-66
2023/12/25 09:54:08;;;;;;;0.40;0.40;;;;;;;;;;5100418;28;20215;-67
2023/12/25 09:56:36;;;;;;;0.28;0.20;;;;;;;;;;5100074;28;20229;-67
2023/12/25 09:59:05;;;;;;;0.28;0.28;;;;;;;;;;5098824;28;20240;-67
2023/12/25 10:01:33;;;;;;;0.20;0.20;;;;;;;;;;5099990;28;20840;-67
2023/12/25 10:04:03;;;;;;;0.95;0.30;;;;;;;;;;5100180;28;20581;-67
2023/12/25 10:06:30;;;;;;;0.30;0.28;;;;;;;;;;5099593;28;20612;-67
2023/12/25 10:08:58;;;;;;;0.30;0.30;;;;;;;;;;5099412;28;20757;-67
2023/12/25 10:11:26;;;;;;;0.20;0.20;;;;;;;;;;5099843;28;20203;-67
2023/12/25 10:13:54;;;;;;;0.30;0.30;;;;;;;;;;5099977;28;20214;-67
2023/12/25 10:16:22;;;;;;;0.30;0.30;;;;;;;;;;5099785;28;20204;-67
2023/12/25 10:18:50;;;;;;;0.30;0.30;;;;;;;;;;5099393;28;20204;-67
2023/12/25 10:21:17;;;;;;;0.30;0.30;;;;;;;;;;5099041;28;20234;-67
2023/12/25 10:23:47;;;;;;;0.25;0.20;;;;;;;;;;5098832;28;20256;-67
2023/12/25 10:26:14;;;;;;;0.30;0.20;;;;;;;;;;5098700;28;20204;-67
2023/12/25 10:28:43;;;;;;;0.30;0.30;;;;;;;;;;5098265;28;20204;-67
2023/12/25 10:31:10;;;;;;;0.30;0.20;;;;;;;;;;5098653;28;20261;-67
2023/12/25 10:33:38;;;;;;;0.20;0.20;;;;;;;;;;5097814;28;20203;-67
2023/12/25 10:36:07;;;;;;;0.45;0.40;;;;;;;;;;5098681;28;20211;-67
2023/12/25 10:38:35;;;;;;;0.20;0.20;;;;;;;;;;5098644;28;20211;-67
2023/12/25 10:41:22;;;;;;;0.20;0.20;;;;;;;;;;5098768;28;20243;-67
2023/12/25 10:43:53;;;;;;;0.30;0.30;;;;;;;;;;5098981;28;20204;-67
2023/12/25 10:46:22;;;;;;;1.13;0.30;;;;;;;;;;5098506;28;20215;-67
2023/12/25 10:48:50;;;;;;;0.22;0.22;;;;;;;;;;5098134;28;20203;-67
2023/12/25 10:51:20;;;;;;;0.45;0.30;;;;;;;;;;5098158;28;20203;-67
2023/12/25 10:53:48;;;;;;;0.93;0.30;;;;;;;;;;5098238;28;20249;-67
2023/12/25 10:56:16;;;;;;;1.83;0.25;;;;;;;;;;5098540;28;20215;-67
2023/12/25 10:58:44;;;;;;;0.40;0.32;;;;;;;;;;5097699;28;20235;-67
2023/12/25 11:01:13;;;;;;;0.38;0.38;;;;;;;;;;5097286;28;20228;-67
2023/12/25 11:03:40;;;;;;;0.30;0.30;;;;;;;;;;5098376;28;20281;-66
2023/12/25 11:06:08;;;;;;;0.20;0.20;;;;;;;;;;5098057;28;20211;-66
2023/12/25 11:08:36;;;;;;;1.33;0.30;;;;;;;;;;5098303;28;20204;-67
2023/12/25 11:11:03;;;;;;;0.20;0.20;;;;;;;;;;5098281;28;20233;-67
2023/12/25 11:13:32;;;;;;;2.20;0.28;;;;;;;;;;5098305;28;20214;-66
2023/12/25 11:16:00;;;;;;;0.40;0.20;;;;;;;;;;5097383;28;20199;-67
2023/12/25 11:18:29;;;;;;;0.20;0.20;;;;;;;;;;5098389;28;20211;-67
2023/12/25 11:21:03;;;;;;;0.50;0.25;;;;;;;;;;5097928;28;20465;-67
2023/12/25 11:23:31;;;;;;;0.40;0.20;;;;;;;;;;5097594;28;20746;-67
2023/12/25 11:26:00;;;;;;;0.40;0.28;;;;;;;;;;5098150;28;20250;-67
2023/12/25 11:28:27;;;;;;;0.40;0.20;;;;;;;;;;5098058;28;20204;-67
2023/12/25 11:30:55;;;;;;;0.73;0.30;;;;;;;;;;5097893;28;20204;-67
2023/12/25 11:33:22;;;;;;;0.75;0.30;;;;;;;;;;5089669;28;20467;-67
2023/12/25 11:35:51;;;;;;;0.20;0.20;;;;;;;;;;5097548;28;20211;-67
2023/12/25 11:38:32;;;;;;;0.85;0.20;;;;;;;;;;5097461;28;20217;-67
2023/12/25 11:41:05;;;;;;;0.50;0.30;;;;;;;;;;5097857;28;20204;-67
2023/12/25 11:43:33;;;;;;;0.20;0.20;;;;;;;;;;5097358;28;20204;-66
2023/12/25 11:46:02;;;;;;;0.65;0.30;;;;;;;;;;5097783;28;20219;-67
2023/12/25 11:48:32;;;;;;;0.20;0.20;;;;;;;;;;5097465;28;20226;-66
2023/12/25 11:51:20;;;;;;;0.43;0.30;;;;;;;;;;5098082;28;20203;-67
2023/12/25 11:53:49;;;;;;;0.50;0.20;;;;;;;;;;5097667;28;20538;-66
2023/12/25 11:56:17;;;;;;;0.40;0.40;;;;;;;;;;5097306;28;20250;-66
2023/12/25 11:58:45;;;;;;;0.55;0.30;;;;;;;;;;5097107;28;20617;-67
2023/12/25 12:01:16;;;;;;;0.28;0.20;;;;;;;;;;5097641;28;20204;-67
2023/12/25 12:03:43;;;;;;;0.30;0.30;;;;;;;;;;5097207;28;20269;-67
2023/12/25 12:06:12;;;;;;;0.20;0.20;;;;;;;;;;5097459;28;20214;-67
2023/12/25 12:08:39;;;;;;;0.22;0.22;;;;;;;;;;5097126;28;20285;-67
2023/12/25 12:11:07;;;;;;;0.20;0.20;;;;;;;;;;5097074;28;20203;-67
2023/12/25 12:13:34;;;;;;;0.28;0.20;;;;;;;;;;5097107;28;20199;-67
2023/12/25 12:16:02;;;;;;;0.22;0.20;;;;;;;;;;5097076;28;20215;-66
2023/12/25 12:18:29;;;;;;;0.22;0.22;;;;;;;;;;5097107;28;20203;-67
2023/12/25 12:20:57;;;;;;;0.50;0.40;;;;;;;;;;5097152;28;20203;-67
2023/12/25 12:23:26;;;;;;;0.30;0.30;;;;;;;;;;5097004;28;20483;-67
2023/12/25 12:25:53;;;;;;;0.22;0.20;;;;;;;;;;5096939;28;20211;-67
2023/12/25 12:28:20;;;;;;;0.55;0.35;;;;;;;;;;5096894;28;20577;-66
2023/12/25 12:30:48;;;;;;;1.45;0.65;;;;;;;;;;5097125;28;20230;-67
2023/12/25 12:33:16;;;;;;;2.10;0.45;;;;;;;;;;5097293;28;20303;-66
2023/12/25 12:35:43;;;;;;;0.65;0.40;;;;;;;;;;5097358;28;20253;-66
2023/12/25 12:38:13;;;;;;;1.05;0.40;;;;;;;;;;5096741;28;20214;-67
2023/12/25 12:40:41;;;;;;;0.30;0.25;;;;;;;;;;5096321;28;20239;-67
2023/12/25 12:43:09;;;;;;;0.20;0.20;;;;;;;;;;5096703;28;20609;-66
2023/12/25 12:45:36;;;;;;;0.80;0.40;;;;;;;;;;5096883;28;20541;-67
2023/12/25 12:48:03;;;;;;;1.02;0.38;;;;;;;;;;5097521;28;20277;-67
2023/12/25 12:50:32;;;;;;;0.25;0.25;;;;;;;;;;5096853;28;20209;-67
2023/12/25 12:52:59;;;;;;;0.30;0.30;;;;;;;;;;5095659;28;20637;-67
2023/12/25 12:55:27;;;;;;;3.72;1.90;;;;;;;;;;5096341;28;20629;-66
2023/12/25 12:57:55;;;;;;;16.90;13.18;;;;;;;;;;5096318;28;20573;-66
2023/12/25 13:00:23;;;;;;;19.13;15.60;;;;;;;;;;5096260;28;20217;-67
2023/12/25 13:02:52;;;;;;;16.88;12.90;;;;;;;;;;5096289;28;20235;-67
2023/12/25 13:05:20;;;;;;;15.35;12.63;;;;;;;;;;5096108;28;20204;-66
2023/12/25 13:07:47;;;;;;;15.38;11.48;;;;;;;;;;5096822;28;20491;-67
2023/12/25 13:10:15;;;;;;;14.18;10.77;;;;;;;;;;5096428;28;20199;-67
2023/12/25 13:12:42;;;;;;;13.55;10.43;;;;;;;;;;5096114;28;20200;-67
2023/12/25 13:15:11;;;;;;;13.65;9.88;;;;;;;;;;5096078;28;20204;-67
2023/12/25 13:17:39;;;;;;;11.80;10.10;;;;;;;;;;5096323;28;20196;-67
2023/12/25 13:20:09;;;;;;;11.55;9.40;;;;;;;;;;5096091;28;20208;-67
2023/12/25 13:22:37;;;;;;;10.38;8.68;;;;;;;;;;5096846;28;20292;-67
2023/12/25 13:25:05;;;;;;;11.52;9.20;;;;;;;;;;5099876;28;20204;-67
2023/12/25 13:27:32;;;;;;;10.05;8.80;;;;;;;;;;5100346;28;20204;-67
2023/12/25 13:30:00;;;;;;;10.60;8.70;;;;;;;;;;5100799;28;20204;-67
2023/12/25 13:32:29;;;;;;;10.82;9.30;;;;;;;;;;5100337;28;20195;-67
2023/12/25 13:34:56;;;;;;;10.90;9.50;;;;;;;;;;5098912;28;20506;-67
2023/12/25 13:37:24;;;;;;;10.85;9.32;;;;;;;;;;5100544;28;20204;-67
2023/12/25 13:39:51;;;;;;;10.20;9.10;;;;;;;;;;5100096;28;20203;-67
2023/12/25 13:42:18;;;;;;;11.10;10.00;;;;;;;;;;5099681;28;20230;-67
2023/12/25 13:44:46;;;;;;;10.90;8.98;;;;;;;;;;5099952;28;20203;-67
2023/12/25 13:47:14;;;;;;;10.45;9.10;;;;;;;;;;5099736;28;20204;-67
2023/12/25 13:49:43;;;;;;;10.30;9.20;;;;;;;;;;5099220;28;20203;-67
2023/12/25 13:52:10;;;;;;;10.38;9.27;;;;;;;;;;5099211;28;20269;-67
2023/12/25 13:54:38;;;;;;;10.70;9.10;;;;;;;;;;5098966;28;20834;-67
2023/12/25 13:57:06;;;;;;;10.05;8.75;;;;;;;;;;5099899;28;20208;-66
2023/12/25 13:59:33;;;;;;;10.43;9.23;;;;;;;;;;5099181;28;20231;-67
2023/12/25 14:02:00;;;;;;;9.80;8.45;;;;;;;;;;5099294;28;20203;-67
2023/12/25 14:04:27;;;;;;;9.82;8.80;;;;;;;;;;5099152;28;20204;-67
2023/12/25 14:06:56;;;;;;;10.10;8.75;;;;;;;;;;5098817;28;20212;-67
2023/12/25 14:09:24;;;;;;;9.23;8.32;;;;;;;;;;5098932;28;20521;-67
2023/12/25 14:11:52;;;;;;;9.48;8.52;;;;;;;;;;5099144;28;20204;-66
2023/12/25 14:14:19;;;;;;;9.55;8.55;;;;;;;;;;5098746;28;20214;-67
2023/12/25 14:16:46;;;;;;;9.48;8.52;;;;;;;;;;5098689;28;20203;-67
2023/12/25 14:19:14;;;;;;;9.48;7.95;;;;;;;;;;5098487;28;20218;-67
2023/12/25 14:21:41;;;;;;;8.80;7.90;;;;;;;;;;5098170;28;20496;-67
2023/12/25 14:24:11;;;;;;;8.40;7.60;;;;;;;;;;5099070;28;20536;-66
2023/12/25 14:26:38;;;;;;;8.75;7.93;;;;;;;;;;5098686;28;20214;-67
2023/12/25 14:29:06;;;;;;;8.80;7.90;;;;;;;;;;5098651;28;20211;-67
2023/12/25 14:31:33;;;;;;;7.97;7.20;;;;;;;;;;5098565;28;20542;-66
2023/12/25 14:34:01;;;;;;;8.15;7.35;;;;;;;;;;5098882;28;20199;-67
2023/12/25 14:36:30;;;;;;;7.78;6.95;;;;;;;;;;5097585;28;20229;-67
2023/12/25 14:39:00;;;;;;;7.70;6.78;;;;;;;;;;5098924;28;20204;-67
2023/12/25 14:41:29;;;;;;;7.82;7.03;;;;;;;;;;5098307;28;20636;-67
2023/12/25 14:43:57;;;;;;;7.75;6.93;;;;;;;;;;5098490;28;20232;-67